DLH24C EDDC-EDDF
Flight info
| Callsign | DLH24C |
|---|---|
| Flight time | 0h 58m |
| Altitude | 30000 |
| Route | ABKIS4E ABKIS Z715 PEROX/N0456F380 Z715 NURGO T170 GAPLA/N0424F240 T178 KERAX KERAX5D |
| Aircraft | A319/M-SDE3FGHIRWY/LB1 |
Departure
| Time | 2026-05-08 19:28 |
|---|---|
| Airport | Dresden Airport (EDDC) |
Arrival
| Time | 2026-05-08 20:26 |
|---|---|
| Airport | Frankfurt Main Airport (EDDF) |
| Time | Latitude | Longitude | Altitude | Speed | Heading |
|---|---|---|---|---|---|
| 2026-05-08 18:56 | 51.12626 | 13.76540 | 753 ft | 0 kts | 221° |
| 2026-05-08 19:16 | 51.12627 | 13.76540 | 753 ft | 0 kts | 221° |
| 2026-05-08 19:20 | 51.12627 | 13.76541 | 753 ft | 1 kts | 221° |
| 2026-05-08 19:20 | 51.12632 | 13.76548 | 748 ft | 4 kts | 221° |
| 2026-05-08 19:20 | 51.12661 | 13.76589 | 749 ft | 4 kts | 236° |
| 2026-05-08 19:20 | 51.12667 | 13.76623 | 749 ft | 4 kts | 295° |
| 2026-05-08 19:21 | 51.12653 | 13.76655 | 748 ft | 4 kts | 311° |
| 2026-05-08 19:21 | 51.12649 | 13.76661 | 748 ft | 0 kts | 311° |
| 2026-05-08 19:23 | 51.12651 | 13.76658 | 753 ft | 2 kts | 311° |
| 2026-05-08 19:23 | 51.12668 | 13.76628 | 751 ft | 6 kts | 311° |
| 2026-05-08 19:24 | 51.12707 | 13.76556 | 749 ft | 11 kts | 310° |
| 2026-05-08 19:24 | 51.12760 | 13.76458 | 753 ft | 11 kts | 310° |
| 2026-05-08 19:24 | 51.12764 | 13.76356 | 752 ft | 10 kts | 233° |
| 2026-05-08 19:24 | 51.12714 | 13.76288 | 756 ft | 9 kts | 219° |
| 2026-05-08 19:25 | 51.12672 | 13.76231 | 755 ft | 7 kts | 221° |
| 2026-05-08 19:25 | 51.12640 | 13.76186 | 757 ft | 5 kts | 220° |
| 2026-05-08 19:25 | 51.12614 | 13.76153 | 757 ft | 4 kts | 220° |
| 2026-05-08 19:25 | 51.12588 | 13.76118 | 759 ft | 8 kts | 220° |
| 2026-05-08 19:26 | 51.12529 | 13.76035 | 758 ft | 14 kts | 222° |
| 2026-05-08 19:26 | 51.12461 | 13.75938 | 762 ft | 13 kts | 221° |
| 2026-05-08 19:26 | 51.12403 | 13.75858 | 763 ft | 10 kts | 220° |
| 2026-05-08 19:26 | 51.12373 | 13.75769 | 764 ft | 10 kts | 276° |
| 2026-05-08 19:27 | 51.12402 | 13.75639 | 764 ft | 16 kts | 291° |
| 2026-05-08 19:27 | 51.12466 | 13.75496 | 764 ft | 11 kts | 320° |
| 2026-05-08 19:27 | 51.12503 | 13.75514 | 764 ft | 0 kts | 41° |
| 2026-05-08 19:27 | 51.12505 | 13.75516 | 764 ft | 2 kts | 41° |
| 2026-05-08 19:28 | 51.12623 | 13.75680 | 763 ft | 59 kts | 40° |
| 2026-05-08 19:28 | 51.13121 | 13.76365 | 751 ft | 128 kts | 41° |
| 2026-05-08 19:28 | 51.13902 | 13.77448 | 960 ft | 159 kts | 42° |
| 2026-05-08 19:28 | 51.14756 | 13.78708 | 1425 ft | 178 kts | 43° |
| 2026-05-08 19:29 | 51.15740 | 13.80109 | 1830 ft | 203 kts | 42° |
| 2026-05-08 19:29 | 51.16870 | 13.81675 | 2287 ft | 227 kts | 41° |
| 2026-05-08 19:29 | 51.18122 | 13.83420 | 2874 ft | 248 kts | 43° |
| 2026-05-08 19:29 | 51.19366 | 13.85386 | 3775 ft | 255 kts | 50° |
| 2026-05-08 19:30 | 51.20256 | 13.87851 | 4711 ft | 261 kts | 74° |
| 2026-05-08 19:30 | 51.20277 | 13.90742 | 5599 ft | 267 kts | 107° |
| 2026-05-08 19:30 | 51.19392 | 13.93359 | 6519 ft | 272 kts | 129° |
| 2026-05-08 19:30 | 51.18085 | 13.95568 | 7370 ft | 277 kts | 135° |
| 2026-05-08 19:31 | 51.16735 | 13.97737 | 8221 ft | 282 kts | 135° |
| 2026-05-08 19:31 | 51.15347 | 13.99977 | 9071 ft | 287 kts | 135° |
| 2026-05-08 19:31 | 51.13939 | 14.02269 | 9907 ft | 293 kts | 135° |
| 2026-05-08 19:31 | 51.12495 | 14.04633 | 10480 ft | 307 kts | 135° |
| 2026-05-08 19:32 | 51.10943 | 14.07166 | 10746 ft | 331 kts | 137° |
| 2026-05-08 19:32 | 51.09016 | 14.09344 | 10964 ft | 352 kts | 155° |
| 2026-05-08 19:32 | 51.06638 | 14.10429 | 11453 ft | 360 kts | 175° |
| 2026-05-08 19:32 | 51.04155 | 14.10199 | 12140 ft | 362 kts | 195° |
| 2026-05-08 19:33 | 51.01884 | 14.08653 | 12870 ft | 361 kts | 216° |
| 2026-05-08 19:33 | 51.00077 | 14.05931 | 13630 ft | 360 kts | 236° |
| 2026-05-08 19:33 | 50.98979 | 14.02373 | 14342 ft | 361 kts | 255° |
| 2026-05-08 19:33 | 50.98526 | 13.98446 | 15014 ft | 363 kts | 262° |
| 2026-05-08 19:34 | 50.98142 | 13.94474 | 15688 ft | 366 kts | 262° |
| 2026-05-08 19:34 | 50.97755 | 13.90472 | 16333 ft | 369 kts | 262° |
| 2026-05-08 19:34 | 50.97362 | 13.86433 | 16978 ft | 372 kts | 262° |
| 2026-05-08 19:34 | 50.96959 | 13.82360 | 17621 ft | 375 kts | 261° |
| 2026-05-08 19:35 | 50.96546 | 13.78254 | 18257 ft | 379 kts | 261° |
| 2026-05-08 19:35 | 50.96125 | 13.74111 | 18844 ft | 382 kts | 261° |
| 2026-05-08 19:35 | 50.95696 | 13.69937 | 19389 ft | 385 kts | 261° |
| 2026-05-08 19:35 | 50.95259 | 13.65738 | 19944 ft | 388 kts | 261° |
| 2026-05-08 19:36 | 50.94809 | 13.61515 | 20489 ft | 390 kts | 261° |
| 2026-05-08 19:36 | 50.94351 | 13.57256 | 21022 ft | 393 kts | 261° |
| 2026-05-08 19:36 | 50.93889 | 13.52980 | 21537 ft | 396 kts | 261° |
| 2026-05-08 19:36 | 50.93429 | 13.48716 | 22034 ft | 398 kts | 261° |
| 2026-05-08 19:37 | 50.92963 | 13.44379 | 22533 ft | 401 kts | 261° |
| 2026-05-08 19:37 | 50.92493 | 13.40018 | 23021 ft | 403 kts | 261° |
| 2026-05-08 19:37 | 50.92016 | 13.35614 | 23506 ft | 406 kts | 261° |
| 2026-05-08 19:37 | 50.91535 | 13.31193 | 23936 ft | 409 kts | 261° |
| 2026-05-08 19:38 | 50.91050 | 13.26741 | 24319 ft | 411 kts | 261° |
| 2026-05-08 19:38 | 50.90560 | 13.22263 | 24720 ft | 413 kts | 261° |
| 2026-05-08 19:38 | 50.90068 | 13.17766 | 25111 ft | 416 kts | 261° |
| 2026-05-08 19:38 | 50.89572 | 13.13241 | 25492 ft | 418 kts | 261° |
| 2026-05-08 19:39 | 50.89069 | 13.08695 | 25867 ft | 420 kts | 260° |
| 2026-05-08 19:39 | 50.88558 | 13.04125 | 26241 ft | 423 kts | 260° |
| 2026-05-08 19:39 | 50.88044 | 12.99533 | 26621 ft | 425 kts | 260° |
| 2026-05-08 19:39 | 50.87527 | 12.94913 | 26977 ft | 427 kts | 260° |
| 2026-05-08 19:40 | 50.87015 | 12.90333 | 27324 ft | 429 kts | 260° |
| 2026-05-08 19:40 | 50.86493 | 12.85674 | 27669 ft | 431 kts | 260° |
| 2026-05-08 19:40 | 50.85965 | 12.80986 | 28002 ft | 433 kts | 260° |
| 2026-05-08 19:40 | 50.85429 | 12.76283 | 28344 ft | 435 kts | 259° |
| 2026-05-08 19:41 | 50.84889 | 12.71564 | 28659 ft | 438 kts | 259° |
| 2026-05-08 19:41 | 50.84345 | 12.66820 | 28947 ft | 439 kts | 259° |
| 2026-05-08 19:41 | 50.83797 | 12.62054 | 29225 ft | 440 kts | 259° |
| 2026-05-08 19:41 | 50.83249 | 12.57288 | 29510 ft | 440 kts | 259° |
| 2026-05-08 19:42 | 50.82700 | 12.52533 | 29793 ft | 440 kts | 259° |
| 2026-05-08 19:42 | 50.82149 | 12.47777 | 30076 ft | 439 kts | 259° |
| 2026-05-08 19:42 | 50.81604 | 12.43099 | 30181 ft | 437 kts | 259° |
| 2026-05-08 19:43 | 50.80498 | 12.33694 | 30187 ft | 434 kts | 259° |
| 2026-05-08 19:43 | 50.79391 | 12.24322 | 30186 ft | 434 kts | 259° |
| 2026-05-08 19:44 | 50.78275 | 12.14941 | 30172 ft | 435 kts | 259° |
| 2026-05-08 19:44 | 50.77156 | 12.05617 | 30175 ft | 435 kts | 259° |
| 2026-05-08 19:45 | 50.76022 | 11.96234 | 30169 ft | 434 kts | 259° |
| 2026-05-08 19:45 | 50.74889 | 11.86874 | 30167 ft | 434 kts | 259° |
| 2026-05-08 19:46 | 50.73750 | 11.77514 | 30157 ft | 434 kts | 259° |
| 2026-05-08 19:46 | 50.72013 | 11.63478 | 30155 ft | 434 kts | 258° |
| 2026-05-08 19:47 | 50.70847 | 11.54125 | 30151 ft | 435 kts | 258° |
| 2026-05-08 19:47 | 50.69679 | 11.44839 | 30150 ft | 435 kts | 258° |
| 2026-05-08 19:48 | 50.68506 | 11.35484 | 30151 ft | 435 kts | 258° |
| 2026-05-08 19:48 | 50.67317 | 11.26144 | 30157 ft | 435 kts | 258° |
| 2026-05-08 19:49 | 50.66122 | 11.16800 | 30112 ft | 435 kts | 258° |
| 2026-05-08 19:49 | 50.65520 | 11.12119 | 29595 ft | 437 kts | 258° |
| 2026-05-08 19:49 | 50.64916 | 11.07425 | 29027 ft | 438 kts | 258° |
| 2026-05-08 19:50 | 50.64319 | 11.02819 | 28479 ft | 431 kts | 258° |
| 2026-05-08 19:50 | 50.63723 | 10.98250 | 27986 ft | 422 kts | 258° |
| 2026-05-08 19:50 | 50.63138 | 10.93767 | 27524 ft | 413 kts | 258° |
| 2026-05-08 19:50 | 50.62563 | 10.89380 | 27075 ft | 405 kts | 258° |
| 2026-05-08 19:51 | 50.61996 | 10.85067 | 26634 ft | 398 kts | 258° |
| 2026-05-08 19:51 | 50.61439 | 10.80828 | 26200 ft | 393 kts | 258° |
| 2026-05-08 19:51 | 50.60888 | 10.76645 | 25783 ft | 389 kts | 258° |
| 2026-05-08 19:51 | 50.60341 | 10.72479 | 25389 ft | 387 kts | 258° |
| 2026-05-08 19:52 | 50.59813 | 10.68345 | 25026 ft | 384 kts | 259° |
| 2026-05-08 19:52 | 50.59342 | 10.64267 | 24782 ft | 383 kts | 260° |
| 2026-05-08 19:52 | 50.58897 | 10.60144 | 24542 ft | 382 kts | 261° |
| 2026-05-08 19:52 | 50.58461 | 10.56025 | 24304 ft | 381 kts | 260° |
| 2026-05-08 19:53 | 50.58020 | 10.51923 | 24136 ft | 380 kts | 260° |
| 2026-05-08 19:53 | 50.57581 | 10.47832 | 24163 ft | 379 kts | 260° |
| 2026-05-08 19:53 | 50.57138 | 10.43738 | 24149 ft | 380 kts | 260° |
| 2026-05-08 19:53 | 50.56691 | 10.39650 | 24148 ft | 380 kts | 260° |
| 2026-05-08 19:54 | 50.56234 | 10.35509 | 24148 ft | 380 kts | 260° |
| 2026-05-08 19:54 | 50.55788 | 10.31467 | 24150 ft | 380 kts | 260° |
| 2026-05-08 19:54 | 50.55336 | 10.27378 | 24157 ft | 380 kts | 260° |
| 2026-05-08 19:54 | 50.54883 | 10.23303 | 23791 ft | 376 kts | 260° |
| 2026-05-08 19:55 | 50.54428 | 10.19268 | 23266 ft | 374 kts | 260° |
| 2026-05-08 19:55 | 50.53974 | 10.15253 | 22753 ft | 372 kts | 260° |
| 2026-05-08 19:55 | 50.53529 | 10.11318 | 22270 ft | 369 kts | 260° |
| 2026-05-08 19:55 | 50.53087 | 10.07354 | 21779 ft | 367 kts | 260° |
| 2026-05-08 19:56 | 50.52649 | 10.03416 | 21296 ft | 365 kts | 260° |
| 2026-05-08 19:56 | 50.52209 | 9.99504 | 20826 ft | 362 kts | 260° |
| 2026-05-08 19:56 | 50.51769 | 9.95616 | 20357 ft | 360 kts | 260° |
| 2026-05-08 19:56 | 50.51330 | 9.91758 | 19897 ft | 358 kts | 260° |
| 2026-05-08 19:57 | 50.50891 | 9.87925 | 19432 ft | 356 kts | 260° |
| 2026-05-08 19:57 | 50.50452 | 9.84103 | 18970 ft | 354 kts | 260° |
| 2026-05-08 19:57 | 50.49820 | 9.80393 | 18526 ft | 352 kts | 246° |
| 2026-05-08 19:57 | 50.48506 | 9.77181 | 18035 ft | 351 kts | 228° |
| 2026-05-08 19:58 | 50.46700 | 9.74624 | 17517 ft | 350 kts | 221° |
| 2026-05-08 19:58 | 50.44846 | 9.72175 | 17060 ft | 347 kts | 220° |
| 2026-05-08 19:58 | 50.43007 | 9.69765 | 16604 ft | 344 kts | 220° |
| 2026-05-08 19:58 | 50.41168 | 9.67362 | 16138 ft | 342 kts | 220° |
| 2026-05-08 19:59 | 50.39346 | 9.64984 | 15696 ft | 340 kts | 220° |
| 2026-05-08 19:59 | 50.37533 | 9.62617 | 15261 ft | 338 kts | 221° |
| 2026-05-08 19:59 | 50.35731 | 9.60259 | 14822 ft | 336 kts | 221° |
| 2026-05-08 19:59 | 50.33938 | 9.57921 | 14395 ft | 335 kts | 220° |
| 2026-05-08 20:00 | 50.32153 | 9.55598 | 13972 ft | 333 kts | 220° |
| 2026-05-08 20:00 | 50.30376 | 9.53288 | 13516 ft | 331 kts | 221° |
| 2026-05-08 20:00 | 50.28610 | 9.50988 | 13228 ft | 330 kts | 221° |
| 2026-05-08 20:00 | 50.26845 | 9.48700 | 12964 ft | 329 kts | 220° |
| 2026-05-08 20:01 | 50.24873 | 9.46909 | 12695 ft | 330 kts | 200° |
| 2026-05-08 20:01 | 50.22654 | 9.45990 | 12441 ft | 330 kts | 194° |
| 2026-05-08 20:01 | 50.20419 | 9.45180 | 12204 ft | 329 kts | 194° |
| 2026-05-08 20:01 | 50.18197 | 9.44385 | 12110 ft | 328 kts | 194° |
| 2026-05-08 20:02 | 50.15967 | 9.43592 | 12132 ft | 328 kts | 194° |
| 2026-05-08 20:02 | 50.13752 | 9.42807 | 12133 ft | 321 kts | 194° |
| 2026-05-08 20:02 | 50.11607 | 9.42052 | 11911 ft | 313 kts | 194° |
| 2026-05-08 20:02 | 50.09533 | 9.41327 | 11662 ft | 306 kts | 194° |
| 2026-05-08 20:03 | 50.07482 | 9.40614 | 11431 ft | 299 kts | 194° |
| 2026-05-08 20:03 | 50.05480 | 9.39894 | 11302 ft | 291 kts | 198° |
| 2026-05-08 20:03 | 50.03705 | 9.38485 | 11169 ft | 286 kts | 219° |
| 2026-05-08 20:03 | 50.02414 | 9.36169 | 11123 ft | 284 kts | 241° |
| 2026-05-08 20:04 | 50.01771 | 9.33284 | 11132 ft | 285 kts | 262° |
| 2026-05-08 20:04 | 50.01643 | 9.31254 | 11079 ft | 284 kts | 265° |
| 2026-05-08 20:04 | 50.01475 | 9.28206 | 10736 ft | 283 kts | 265° |
| 2026-05-08 20:04 | 50.01311 | 9.25166 | 10392 ft | 281 kts | 265° |
| 2026-05-08 20:05 | 50.01147 | 9.22137 | 10140 ft | 281 kts | 264° |
| 2026-05-08 20:05 | 50.00983 | 9.19122 | 9889 ft | 280 kts | 264° |
| 2026-05-08 20:05 | 50.00760 | 9.15136 | 9539 ft | 278 kts | 264° |
| 2026-05-08 20:05 | 50.00590 | 9.12145 | 9273 ft | 277 kts | 264° |
| 2026-05-08 20:06 | 50.00476 | 9.10135 | 9094 ft | 276 kts | 264° |
| 2026-05-08 20:06 | 50.00309 | 9.07162 | 8830 ft | 275 kts | 265° |
| 2026-05-08 20:06 | 50.00143 | 9.04242 | 8575 ft | 274 kts | 264° |
| 2026-05-08 20:06 | 49.99974 | 9.01293 | 8318 ft | 273 kts | 264° |
| 2026-05-08 20:07 | 49.99804 | 8.98362 | 8141 ft | 273 kts | 264° |
| 2026-05-08 20:07 | 49.99634 | 8.95435 | 8118 ft | 272 kts | 264° |
| 2026-05-08 20:07 | 49.99462 | 8.92499 | 8120 ft | 273 kts | 264° |
| 2026-05-08 20:07 | 49.99290 | 8.89566 | 8119 ft | 273 kts | 264° |
| 2026-05-08 20:08 | 49.99121 | 8.86630 | 8116 ft | 273 kts | 265° |
| 2026-05-08 20:08 | 49.98950 | 8.83691 | 8115 ft | 273 kts | 264° |
| 2026-05-08 20:08 | 49.98775 | 8.80752 | 8115 ft | 273 kts | 264° |
| 2026-05-08 20:08 | 49.98601 | 8.77813 | 8114 ft | 273 kts | 264° |
| 2026-05-08 20:09 | 49.98426 | 8.74882 | 8115 ft | 273 kts | 264° |
| 2026-05-08 20:09 | 49.98123 | 8.71973 | 8113 ft | 273 kts | 257° |
| 2026-05-08 20:09 | 49.97621 | 8.69127 | 8112 ft | 273 kts | 251° |
| 2026-05-08 20:09 | 49.96966 | 8.66377 | 8106 ft | 268 kts | 250° |
| 2026-05-08 20:10 | 49.96333 | 8.63753 | 8106 ft | 251 kts | 250° |
| 2026-05-08 20:10 | 49.95737 | 8.61273 | 8109 ft | 242 kts | 250° |
| 2026-05-08 20:10 | 49.95151 | 8.58841 | 8111 ft | 240 kts | 250° |
| 2026-05-08 20:10 | 49.94573 | 8.56446 | 8107 ft | 240 kts | 250° |
| 2026-05-08 20:11 | 49.93989 | 8.54027 | 7864 ft | 238 kts | 250° |
| 2026-05-08 20:11 | 49.93411 | 8.51626 | 7565 ft | 237 kts | 250° |
| 2026-05-08 20:11 | 49.92831 | 8.49233 | 7264 ft | 236 kts | 250° |
| 2026-05-08 20:11 | 49.92254 | 8.46851 | 6969 ft | 236 kts | 250° |
| 2026-05-08 20:12 | 49.91678 | 8.44468 | 6680 ft | 235 kts | 250° |
| 2026-05-08 20:12 | 49.91108 | 8.42102 | 6378 ft | 234 kts | 250° |
| 2026-05-08 20:12 | 49.90538 | 8.39737 | 6059 ft | 234 kts | 250° |
| 2026-05-08 20:12 | 49.89967 | 8.37380 | 5733 ft | 234 kts | 250° |
| 2026-05-08 20:13 | 49.89396 | 8.35024 | 5427 ft | 233 kts | 249° |
| 2026-05-08 20:13 | 49.88825 | 8.32666 | 5086 ft | 234 kts | 249° |
| 2026-05-08 20:13 | 49.88255 | 8.30305 | 4735 ft | 235 kts | 250° |
| 2026-05-08 20:13 | 49.87679 | 8.27926 | 4410 ft | 235 kts | 249° |
| 2026-05-08 20:14 | 49.87101 | 8.25543 | 4159 ft | 237 kts | 249° |
| 2026-05-08 20:14 | 49.86526 | 8.23181 | 4022 ft | 238 kts | 249° |
| 2026-05-08 20:14 | 49.85943 | 8.20790 | 4016 ft | 238 kts | 249° |
| 2026-05-08 20:14 | 49.85356 | 8.18390 | 4011 ft | 238 kts | 249° |
| 2026-05-08 20:15 | 49.84768 | 8.15985 | 4015 ft | 239 kts | 249° |
| 2026-05-08 20:15 | 49.84180 | 8.13580 | 4013 ft | 239 kts | 249° |
| 2026-05-08 20:15 | 49.83591 | 8.11169 | 4015 ft | 239 kts | 249° |
| 2026-05-08 20:15 | 49.83015 | 8.08766 | 4007 ft | 234 kts | 252° |
| 2026-05-08 20:16 | 49.82960 | 8.06348 | 4014 ft | 222 kts | 285° |
| 2026-05-08 20:16 | 49.83461 | 8.04112 | 4018 ft | 219 kts | 292° |
| 2026-05-08 20:16 | 49.84038 | 8.01937 | 4015 ft | 218 kts | 294° |
| 2026-05-08 20:16 | 49.84749 | 7.99998 | 3990 ft | 203 kts | 318° |
| 2026-05-08 20:17 | 49.85954 | 7.99091 | 4030 ft | 193 kts | 356° |
| 2026-05-08 20:17 | 49.87208 | 7.99505 | 4024 ft | 181 kts | 28° |
| 2026-05-08 20:17 | 49.88289 | 8.00445 | 4019 ft | 177 kts | 33° |
| 2026-05-08 20:17 | 49.89339 | 8.01434 | 4017 ft | 176 kts | 33° |
| 2026-05-08 20:18 | 49.90281 | 8.02608 | 4012 ft | 170 kts | 53° |
| 2026-05-08 20:18 | 49.90817 | 8.04193 | 4017 ft | 164 kts | 71° |
| 2026-05-08 20:18 | 49.91222 | 8.05846 | 4020 ft | 164 kts | 70° |
| 2026-05-08 20:18 | 49.91627 | 8.07497 | 4019 ft | 164 kts | 70° |
| 2026-05-08 20:19 | 49.92027 | 8.09131 | 4023 ft | 165 kts | 70° |
| 2026-05-08 20:19 | 49.92434 | 8.10795 | 4025 ft | 165 kts | 70° |
| 2026-05-08 20:19 | 49.92839 | 8.12454 | 4022 ft | 162 kts | 70° |
| 2026-05-08 20:19 | 49.93230 | 8.14053 | 4024 ft | 157 kts | 70° |
| 2026-05-08 20:20 | 49.93616 | 8.15634 | 4022 ft | 156 kts | 70° |
| 2026-05-08 20:20 | 49.93998 | 8.17202 | 4026 ft | 155 kts | 70° |
| 2026-05-08 20:20 | 49.94378 | 8.18764 | 4027 ft | 155 kts | 70° |
| 2026-05-08 20:20 | 49.94758 | 8.20324 | 4026 ft | 155 kts | 70° |
| 2026-05-08 20:21 | 49.95138 | 8.21883 | 4027 ft | 155 kts | 70° |
| 2026-05-08 20:21 | 49.95514 | 8.23429 | 4026 ft | 154 kts | 70° |
| 2026-05-08 20:21 | 49.95897 | 8.25007 | 4029 ft | 161 kts | 70° |
| 2026-05-08 20:21 | 49.96298 | 8.26660 | 3901 ft | 164 kts | 70° |
| 2026-05-08 20:22 | 49.96700 | 8.28317 | 3715 ft | 163 kts | 70° |
| 2026-05-08 20:22 | 49.97100 | 8.29966 | 3511 ft | 163 kts | 70° |
| 2026-05-08 20:22 | 49.97498 | 8.31610 | 3299 ft | 163 kts | 70° |
| 2026-05-08 20:22 | 49.97897 | 8.33255 | 3080 ft | 163 kts | 71° |
| 2026-05-08 20:23 | 49.98297 | 8.34911 | 2862 ft | 163 kts | 70° |
| 2026-05-08 20:23 | 49.98696 | 8.36560 | 2636 ft | 163 kts | 70° |
| 2026-05-08 20:23 | 49.99092 | 8.38199 | 2423 ft | 161 kts | 70° |
| 2026-05-08 20:23 | 49.99485 | 8.39830 | 2194 ft | 162 kts | 70° |
| 2026-05-08 20:24 | 49.99878 | 8.41458 | 1978 ft | 157 kts | 70° |
| 2026-05-08 20:24 | 50.00253 | 8.43015 | 1763 ft | 150 kts | 70° |
| 2026-05-08 20:24 | 50.00603 | 8.44467 | 1557 ft | 140 kts | 70° |
| 2026-05-08 20:24 | 50.00937 | 8.45857 | 1369 ft | 136 kts | 69° |
| 2026-05-08 20:25 | 50.01266 | 8.47230 | 1201 ft | 135 kts | 69° |
| 2026-05-08 20:25 | 50.01595 | 8.48602 | 1037 ft | 135 kts | 68° |
| 2026-05-08 20:25 | 50.01922 | 8.49978 | 849 ft | 136 kts | 68° |
| 2026-05-08 20:25 | 50.02257 | 8.51342 | 675 ft | 135 kts | 67° |
| 2026-05-08 20:26 | 50.02587 | 8.52714 | 478 ft | 135 kts | 66° |
| 2026-05-08 20:26 | 50.02912 | 8.54072 | 339 ft | 128 kts | 67° |
| 2026-05-08 20:26 | 50.03183 | 8.55207 | 347 ft | 90 kts | 70° |
| 2026-05-08 20:26 | 50.03343 | 8.55872 | 349 ft | 46 kts | 69° |
| 2026-05-08 20:27 | 50.03463 | 8.56249 | 351 ft | 34 kts | 50° |
| 2026-05-08 20:27 | 50.03600 | 8.56452 | 351 ft | 19 kts | 40° |
| 2026-05-08 20:27 | 50.03677 | 8.56550 | 352 ft | 10 kts | 41° |
| 2026-05-08 20:27 | 50.03735 | 8.56631 | 352 ft | 12 kts | 40° |
| 2026-05-08 20:28 | 50.03797 | 8.56752 | 353 ft | 18 kts | 62° |
| 2026-05-08 20:28 | 50.03845 | 8.56948 | 354 ft | 20 kts | 69° |
| 2026-05-08 20:28 | 50.03892 | 8.57138 | 358 ft | 18 kts | 70° |
| 2026-05-08 20:28 | 50.03935 | 8.57321 | 363 ft | 18 kts | 69° |
| 2026-05-08 20:29 | 50.03978 | 8.57498 | 366 ft | 18 kts | 70° |
| 2026-05-08 20:29 | 50.04027 | 8.57705 | 369 ft | 21 kts | 70° |
| 2026-05-08 20:29 | 50.04077 | 8.57916 | 368 ft | 21 kts | 69° |
| 2026-05-08 20:29 | 50.04124 | 8.58091 | 368 ft | 12 kts | 56° |
| 2026-05-08 20:30 | 50.04194 | 8.58172 | 366 ft | 14 kts | 28° |
| 2026-05-08 20:30 | 50.04289 | 8.58197 | 366 ft | 15 kts | 347° |
| 2026-05-08 20:30 | 50.04387 | 8.58142 | 369 ft | 15 kts | 339° |
| 2026-05-08 20:30 | 50.04494 | 8.58081 | 367 ft | 16 kts | 340° |
| 2026-05-08 20:31 | 50.04530 | 8.57983 | 364 ft | 11 kts | 253° |
| 2026-05-08 20:31 | 50.04504 | 8.57865 | 366 ft | 12 kts | 251° |
| 2026-05-08 20:31 | 50.04475 | 8.57742 | 366 ft | 12 kts | 249° |
| 2026-05-08 20:31 | 50.04444 | 8.57612 | 364 ft | 13 kts | 250° |
| 2026-05-08 20:32 | 50.04409 | 8.57464 | 364 ft | 16 kts | 249° |
| 2026-05-08 20:32 | 50.04371 | 8.57304 | 361 ft | 15 kts | 250° |
| 2026-05-08 20:32 | 50.04336 | 8.57157 | 364 ft | 15 kts | 250° |
| 2026-05-08 20:32 | 50.04300 | 8.57006 | 364 ft | 14 kts | 250° |
| 2026-05-08 20:33 | 50.04286 | 8.56946 | 361 ft | 0 kts | 250° |
| 2026-05-08 20:33 | 50.04283 | 8.56932 | 364 ft | 3 kts | 250° |
| 2026-05-08 20:33 | 50.04272 | 8.56885 | 360 ft | 6 kts | 250° |
| 2026-05-08 20:34 | 50.04253 | 8.56808 | 365 ft | 10 kts | 250° |
| 2026-05-08 20:34 | 50.04223 | 8.56684 | 363 ft | 15 kts | 250° |
| 2026-05-08 20:34 | 50.04148 | 8.56369 | 359 ft | 13 kts | 255° |
| 2026-05-08 20:35 | 50.04176 | 8.56279 | 354 ft | 8 kts | 332° |
| 2026-05-08 20:35 | 50.04235 | 8.56242 | 358 ft | 10 kts | 339° |
| 2026-05-08 20:35 | 50.04284 | 8.56197 | 356 ft | 8 kts | 301° |
| 2026-05-08 20:35 | 50.04296 | 8.56101 | 355 ft | 10 kts | 299° |
| 2026-05-08 20:36 | 50.04360 | 8.56048 | 361 ft | 11 kts | 338° |
| 2026-05-08 20:36 | 50.04424 | 8.56040 | 356 ft | 9 kts | 27° |
| 2026-05-08 20:36 | 50.04459 | 8.56144 | 362 ft | 13 kts | 70° |
| 2026-05-08 20:36 | 50.04493 | 8.56282 | 359 ft | 14 kts | 70° |
| 2026-05-08 20:37 | 50.04525 | 8.56403 | 358 ft | 11 kts | 52° |
| 2026-05-08 20:37 | 50.04594 | 8.56470 | 358 ft | 12 kts | 25° |
| 2026-05-08 20:37 | 50.04666 | 8.56521 | 360 ft | 10 kts | 25° |
| 2026-05-08 20:37 | 50.04714 | 8.56578 | 357 ft | 8 kts | 58° |
| 2026-05-08 20:38 | 50.04704 | 8.56645 | 356 ft | 6 kts | 114° |
| 2026-05-08 20:38 | 50.04690 | 8.56692 | 359 ft | 3 kts | 115° |
| 2026-05-08 20:38 | 50.04687 | 8.56700 | 356 ft | 0 kts | 115° |